Time,TemperatureF,DewpointF,PressureIn,WindDirection,WindDirectionDegrees,WindSpeedMPH,WindSpeedGustMPH,Humidity,HourlyPrecipIn,Conditions,Clouds,dailyrainin,SolarRadiationWatts/m^2,SoftwareType,DateUTC
2013-03-06 00:00:00,32.4,30.9,29.66,ESE,104,0.0,6.0,94,0.00,,---,0.00,0.00,VWS V14.00,2013-03-06 05:00:00,
2013-03-06 00:05:00,32.4,30.9,29.65,East,88,0.0,2.0,94,0.00,,---,0.00,0.00,VWS V14.00,2013-03-06 05:05:00,
2013-03-06 00:10:00,32.4,31.1,29.65,ESE,113,0.0,4.0,95,0.00,,---,0.00,0.00,VWS V14.00,2013-03-06 05:10:00,
2013-03-06 00:15:00,32.4,31.1,29.65,ENE,66,0.0,4.0,95,0.00,,---,0.00,0.00,VWS V14.00,2013-03-06 05:15:00,
2013-03-06 00:20:00,32.3,31.0,29.65,ENE,67,0.0,4.0,95,0.00,,---,0.00,0.00,VWS V14.00,2013-03-06 05:20:00,
2013-03-06 00:25:00,32.3,31.0,29.65,ENE,67,0.0,4.0,95,0.00,,---,0.00,0.00,VWS V14.00,2013-03-06 05:25:00,
2013-03-06 00:30:00,32.3,31.0,29.65,ENE,71,0.0,4.0,95,0.00,,---,0.00,0.00,VWS V14.00,2013-03-06 05:30:00,
2013-03-06 00:35:00,32.3,31.0,29.65,ENE,71,0.0,0.0,95,0.00,,---,0.00,0.00,VWS V14.00,2013-03-06 05:35:00,
2013-03-06 00:40:00,32.3,31.0,29.65,ENE,71,0.0,0.0,95,0.00,,---,0.00,0.00,VWS V14.00,2013-03-06 05:40:00,
2013-03-06 00:45:00,32.3,31.0,29.64,ENE,76,0.0,0.0,95,0.00,,---,0.00,0.00,VWS V14.00,2013-03-06 05:45:00,
2013-03-06 00:50:00,32.3,31.0,29.64,ENE,77,0.0,0.0,95,0.00,,---,0.00,0.00,VWS V14.00,2013-03-06 05:50:00,
2013-03-06 00:55:00,32.3,31.0,29.64,NNE,14,0.0,0.0,95,0.00,,---,0.00,0.00,VWS V14.00,2013-03-06 05:55:00,
2013-03-06 01:00:00,32.3,31.0,29.64,NNE,15,0.0,0.0,95,0.00,,---,0.00,0.00,VWS V14.00,2013-03-06 06:00:00,
2013-03-06 01:05:00,32.3,31.0,29.65,NNE,22,0.0,0.0,95,0.00,,---,0.00,0.00,VWS V14.00,2013-03-06 06:05:00,
2013-03-06 01:10:00,32.3,31.0,29.65,NNE,22,0.0,0.0,95,0.00,,---,0.00,0.00,VWS V14.00,2013-03-06 06:10:00,
2013-03-06 01:15:00,32.3,31.0,29.64,NNE,22,0.0,0.0,95,0.00,,---,0.00,0.00,VWS V14.00,2013-03-06 06:15:00,
2013-03-06 01:20:00,32.3,31.0,29.65,NNE,22,0.0,0.0,95,0.00,,---,0.00,0.00,VWS V14.00,2013-03-06 06:20:00,
2013-03-06 01:25:00,32.3,31.0,29.66,NNE,24,0.0,0.0,95,0.00,,---,0.00,0.00,VWS V14.00,2013-03-06 06:25:00,
2013-03-06 01:30:00,32.3,31.3,29.66,NNE,24,0.0,0.0,96,0.00,,---,0.00,0.00,VWS V14.00,2013-03-06 06:30:00,
2013-03-06 01:36:00,32.3,31.3,29.66,NNE,24,0.0,0.0,96,0.00,,---,0.00,0.00,VWS V14.00,2013-03-06 06:36:00,
2013-03-06 01:41:00,32.3,31.3,29.66,NNE,25,0.0,0.0,96,0.00,,---,0.00,0.00,VWS V14.00,2013-03-06 06:41:00,
2013-03-06 01:46:00,32.3,31.3,29.66,NNE,25,0.0,0.0,96,0.00,,---,0.00,0.00,VWS V14.00,2013-03-06 06:46:00,
2013-03-06 01:51:00,32.3,31.3,29.66,NNE,26,0.0,0.0,96,0.00,,---,0.00,0.00,VWS V14.00,2013-03-06 06:51:00,
2013-03-06 01:56:00,32.3,31.3,29.66,NNE,26,0.0,0.0,96,0.00,,---,0.00,0.00,VWS V14.00,2013-03-06 06:56:00,
2013-03-06 02:00:00,31.9,30.9,29.69,NNE,28,0.0,0.0,96,0.00,,---,0.00,0.00,VWS V14.00,2013-03-06 07:00:00,
2013-03-06 02:01:00,32.3,31.3,29.66,NNE,26,0.0,0.0,96,0.00,,---,0.00,0.00,VWS V14.00,2013-03-06 07:01:00,
2013-03-06 02:06:00,32.3,31.3,29.66,NNE,28,0.0,0.0,96,0.00,,---,0.00,0.00,VWS V14.00,2013-03-06 07:06:00,
2013-03-06 02:11:00,32.3,31.3,29.66,NNE,28,0.0,0.0,96,0.00,,---,0.00,0.00,VWS V14.00,2013-03-06 07:11:00,
2013-03-06 02:16:00,32.2,31.2,29.66,NNE,28,0.0,0.0,96,0.00,,---,0.00,0.00,VWS V14.00,2013-03-06 07:16:00,
2013-03-06 02:21:00,32.2,31.2,29.67,NNE,28,0.0,0.0,96,0.00,,---,0.00,0.00,VWS V14.00,2013-03-06 07:21:00,
2013-03-06 02:26:00,32.2,31.2,29.67,NNE,28,0.0,0.0,96,0.00,,---,0.00,0.00,VWS V14.00,2013-03-06 07:26:00,
2013-03-06 02:30:00,31.9,30.9,29.70,NNE,28,0.0,0.0,96,0.00,,---,0.00,0.00,VWS V14.00,2013-03-06 07:30:00,
2013-03-06 02:31:00,32.2,31.2,29.67,NNE,28,0.0,0.0,96,0.00,,---,0.00,0.00,VWS V14.00,2013-03-06 07:31:00,
2013-03-06 02:36:00,32.1,31.1,29.68,NNE,28,0.0,0.0,96,0.00,,---,0.00,0.00,VWS V14.00,2013-03-06 07:36:00,
2013-03-06 02:41:00,32.1,31.1,29.68,NNE,28,0.0,0.0,96,0.00,,---,0.00,0.00,VWS V14.00,2013-03-06 07:41:00,
2013-03-06 02:46:00,32.0,31.0,29.68,NNE,28,0.0,0.0,96,0.00,,---,0.00,0.00,VWS V14.00,2013-03-06 07:46:00,
2013-03-06 02:51:00,32.0,31.0,29.68,NNE,28,0.0,0.0,96,0.00,,---,0.00,0.00,VWS V14.00,2013-03-06 07:51:00,
2013-03-06 02:56:00,31.9,30.9,29.68,NNE,28,0.0,0.0,96,0.00,,---,0.00,0.00,VWS V14.00,2013-03-06 07:56:00,
2013-03-06 03:00:00,31.9,30.9,29.71,NNE,28,0.0,0.0,96,0.00,,---,0.00,0.00,VWS V14.00,2013-03-06 08:00:00,
2013-03-06 03:01:00,31.9,30.9,29.69,NNE,28,0.0,0.0,96,0.00,,---,0.00,0.00,VWS V14.00,2013-03-06 08:01:00,
2013-03-06 03:06:00,31.9,30.9,29.69,NNE,28,0.0,0.0,96,0.00,,---,0.00,0.00,VWS V14.00,2013-03-06 08:06:00,
2013-03-06 03:11:00,31.9,30.9,29.69,NNE,28,0.0,0.0,96,0.00,,---,0.00,0.00,VWS V14.00,2013-03-06 08:11:00,
2013-03-06 03:16:00,31.9,30.9,29.70,NNE,28,0.0,0.0,96,0.00,,---,0.00,0.00,VWS V14.00,2013-03-06 08:16:00,
2013-03-06 03:21:00,31.9,30.9,29.70,NNE,28,0.0,0.0,96,0.00,,---,0.00,0.00,VWS V14.00,2013-03-06 08:21:00,
2013-03-06 03:26:00,31.9,30.9,29.70,NNE,28,0.0,0.0,96,0.00,,---,0.00,0.00,VWS V14.00,2013-03-06 08:26:00,
2013-03-06 03:30:00,32.1,31.1,29.72,NNE,28,0.0,0.0,96,0.00,,---,0.00,0.00,VWS V14.00,2013-03-06 08:30:00,
2013-03-06 03:31:00,31.9,30.9,29.70,NNE,28,0.0,0.0,96,0.00,,---,0.00,0.00,VWS V14.00,2013-03-06 08:31:00,
2013-03-06 03:36:00,31.9,30.9,29.70,NNE,28,0.0,0.0,96,0.00,,---,0.00,0.00,VWS V14.00,2013-03-06 08:36:00,
2013-03-06 03:41:00,31.9,30.9,29.71,NNE,28,0.0,0.0,96,0.00,,---,0.00,0.00,VWS V14.00,2013-03-06 08:41:00,
2013-03-06 03:46:00,31.8,30.8,29.71,NNE,28,0.0,0.0,96,0.00,,---,0.00,0.00,VWS V14.00,2013-03-06 08:46:00,
2013-03-06 03:51:00,31.8,30.8,29.71,NNE,28,0.0,0.0,96,0.00,,---,0.00,0.00,VWS V14.00,2013-03-06 08:51:00,
2013-03-06 03:56:00,31.9,30.9,29.71,NNE,28,0.0,0.0,96,0.00,,---,0.00,0.00,VWS V14.00,2013-03-06 08:56:00,
2013-03-06 04:00:00,32.0,31.0,29.73,NNE,28,0.0,0.0,96,0.00,,---,0.00,0.00,VWS V14.00,2013-03-06 09:00:00,
2013-03-06 04:01:00,31.9,30.9,29.71,NNE,28,0.0,0.0,96,0.00,,---,0.00,0.00,VWS V14.00,2013-03-06 09:01:00,
2013-03-06 04:06:00,31.9,30.9,29.71,NNE,28,0.0,0.0,96,0.00,,---,0.00,0.00,VWS V14.00,2013-03-06 09:06:00,
2013-03-06 04:11:00,32.0,31.0,29.72,NNE,28,0.0,0.0,96,0.00,,---,0.00,0.00,VWS V14.00,2013-03-06 09:11:00,
2013-03-06 04:16:00,32.0,31.0,29.72,NNE,28,0.0,0.0,96,0.00,,---,0.00,0.00,VWS V14.00,2013-03-06 09:16:00,
2013-03-06 04:21:00,32.0,31.0,29.72,NNE,28,0.0,0.0,96,0.00,,---,0.00,0.00,VWS V14.00,2013-03-06 09:21:00,
2013-03-06 04:26:00,32.1,31.1,29.72,NNE,28,0.0,0.0,96,0.00,,---,0.00,0.00,VWS V14.00,2013-03-06 09:26:00,
2013-03-06 04:30:00,31.8,30.8,29.75,NNE,28,0.0,0.0,96,0.00,,---,0.00,0.00,VWS V14.00,2013-03-06 09:30:00,
2013-03-06 04:31:00,32.1,31.1,29.72,NNE,28,0.0,0.0,96,0.00,,---,0.00,0.00,VWS V14.00,2013-03-06 09:31:00,
2013-03-06 04:36:00,32.1,31.1,29.72,NNE,28,0.0,0.0,96,0.00,,---,0.00,0.00,VWS V14.00,2013-03-06 09:36:00,
2013-03-06 04:41:00,32.1,31.1,29.73,NNE,28,0.0,0.0,96,0.00,,---,0.00,0.00,VWS V14.00,2013-03-06 09:41:00,
2013-03-06 04:46:00,32.1,31.1,29.73,NNE,28,0.0,0.0,96,0.00,,---,0.00,0.00,VWS V14.00,2013-03-06 09:46:00,
2013-03-06 04:51:00,32.1,31.1,29.73,NNE,28,0.0,0.0,96,0.00,,---,0.00,0.00,VWS V14.00,2013-03-06 09:51:00,
2013-03-06 04:56:00,32.0,31.0,29.73,NNE,28,0.0,0.0,96,0.00,,---,0.00,0.00,VWS V14.00,2013-03-06 09:56:00,
2013-03-06 05:00:00,31.6,30.6,29.76,NNE,28,0.0,0.0,96,0.00,,---,0.00,0.00,VWS V14.00,2013-03-06 10:00:00,
2013-03-06 05:01:00,32.0,31.0,29.73,NNE,28,0.0,0.0,96,0.00,,---,0.00,0.00,VWS V14.00,2013-03-06 10:01:00,
2013-03-06 05:06:00,31.9,30.9,29.73,NNE,28,0.0,0.0,96,0.00,,---,0.00,0.00,VWS V14.00,2013-03-06 10:06:00,
2013-03-06 05:11:00,31.9,30.9,29.73,NNE,28,0.0,0.0,96,0.00,,---,0.00,0.00,VWS V14.00,2013-03-06 10:11:00,
2013-03-06 05:16:00,31.8,30.8,29.74,NNE,28,0.0,0.0,96,0.00,,---,0.00,0.00,VWS V14.00,2013-03-06 10:16:00,
2013-03-06 05:21:00,31.8,30.8,29.74,NNE,28,0.0,0.0,96,0.00,,---,0.00,0.00,VWS V14.00,2013-03-06 10:21:00,
2013-03-06 05:26:00,31.8,30.8,29.75,NNE,28,0.0,0.0,96,0.00,,---,0.00,0.00,VWS V14.00,2013-03-06 10:26:00,
2013-03-06 05:30:00,31.5,30.5,29.78,NNE,28,0.0,0.0,96,0.00,,---,0.00,0.00,VWS V14.00,2013-03-06 10:30:00,
2013-03-06 05:31:00,31.8,30.8,29.75,NNE,28,0.0,0.0,96,0.00,,---,0.00,0.00,VWS V14.00,2013-03-06 10:31:00,
2013-03-06 05:36:00,31.7,30.7,29.75,NNE,28,0.0,0.0,96,0.00,,---,0.00,0.00,VWS V14.00,2013-03-06 10:36:00,
2013-03-06 05:41:00,31.7,30.7,29.75,NNE,28,0.0,0.0,96,0.00,,---,0.00,0.00,VWS V14.00,2013-03-06 10:41:00,
2013-03-06 05:46:00,31.7,30.7,29.75,NNE,28,0.0,0.0,96,0.00,,---,0.00,0.00,VWS V14.00,2013-03-06 10:46:00,
2013-03-06 05:51:00,31.6,30.6,29.75,NNE,28,0.0,0.0,96,0.00,,---,0.00,0.00,VWS V14.00,2013-03-06 10:51:00,
2013-03-06 05:56:00,31.6,30.6,29.76,NNE,28,0.0,0.0,96,0.00,,---,0.00,0.00,VWS V14.00,2013-03-06 10:56:00,
2013-03-06 06:00:00,31.6,30.6,29.79,NNE,28,0.0,0.0,96,0.00,,---,0.00,0.00,VWS V14.00,2013-03-06 11:00:00,
2013-03-06 06:01:00,31.6,30.6,29.76,NNE,28,0.0,0.0,96,0.00,,---,0.00,0.00,VWS V14.00,2013-03-06 11:01:00,
2013-03-06 06:06:00,31.6,30.6,29.76,NNE,28,0.0,0.0,96,0.00,,---,0.00,0.00,VWS V14.00,2013-03-06 11:06:00,
2013-03-06 06:11:00,31.5,30.5,29.77,NNE,28,0.0,0.0,96,0.00,,---,0.00,0.00,VWS V14.00,2013-03-06 11:11:00,
2013-03-06 06:16:00,31.5,30.5,29.77,NNE,28,0.0,0.0,96,0.00,,---,0.00,0.00,VWS V14.00,2013-03-06 11:16:00,
2013-03-06 06:21:00,31.5,30.5,29.77,NNE,28,0.0,0.0,96,0.00,,---,0.00,0.00,VWS V14.00,2013-03-06 11:21:00,
2013-03-06 06:26:00,31.5,30.5,29.77,NNE,28,0.0,0.0,96,0.00,,---,0.00,0.00,VWS V14.00,2013-03-06 11:26:00,
2013-03-06 06:30:00,31.6,30.6,29.80,NNE,28,0.0,0.0,96,0.00,,---,0.00,9.00,VWS V14.00,2013-03-06 11:30:00,
2013-03-06 06:31:00,31.5,30.5,29.78,NNE,28,0.0,0.0,96,0.00,,---,0.00,0.00,VWS V14.00,2013-03-06 11:31:00,
2013-03-06 06:36:00,31.5,30.5,29.78,NNE,28,0.0,0.0,96,0.00,,---,0.00,0.00,VWS V14.00,2013-03-06 11:36:00,
2013-03-06 06:41:00,31.5,30.5,29.78,NNE,28,0.0,0.0,96,0.00,,---,0.00,0.00,VWS V14.00,2013-03-06 11:41:00,
2013-03-06 06:47:00,31.5,30.5,29.78,NNE,28,0.0,0.0,96,0.00,,---,0.00,0.00,VWS V14.00,2013-03-06 11:47:00,
2013-03-06 06:52:00,31.5,30.5,29.79,NNE,28,0.0,0.0,96,0.00,,---,0.00,0.00,VWS V14.00,2013-03-06 11:52:00,
2013-03-06 06:57:00,31.6,30.6,29.79,NNE,28,0.0,0.0,96,0.00,,---,0.00,0.00,VWS V14.00,2013-03-06 11:57:00,
2013-03-06 07:00:00,31.9,30.9,29.82,NNE,28,0.0,0.0,96,0.00,,---,0.00,21.00,VWS V14.00,2013-03-06 12:00:00,
2013-03-06 07:02:00,31.6,30.6,29.79,NNE,28,0.0,0.0,96,0.00,,---,0.00,0.00,VWS V14.00,2013-03-06 12:02:00,
2013-03-06 07:07:00,31.6,30.6,29.79,NNE,28,0.0,0.0,96,0.00,,---,0.00,0.00,VWS V14.00,2013-03-06 12:07:00,
2013-03-06 07:12:00,31.6,30.6,29.79,NNE,28,0.0,0.0,96,0.00,,---,0.00,0.00,VWS V14.00,2013-03-06 12:12:00,
2013-03-06 07:17:00,31.6,30.6,29.79,NNE,28,0.0,0.0,96,0.00,,---,0.00,5.00,VWS V14.00,2013-03-06 12:17:00,
2013-03-06 07:22:00,31.6,30.6,29.80,NNE,28,0.0,0.0,96,0.00,,---,0.00,7.00,VWS V14.00,2013-03-06 12:22:00,
2013-03-06 07:27:00,31.6,30.6,29.80,NNE,28,0.0,0.0,96,0.00,,---,0.00,7.00,VWS V14.00,2013-03-06 12:27:00,
2013-03-06 07:30:00,32.4,31.4,29.83,NNE,28,0.0,0.0,96,0.00,,---,0.00,30.00,VWS V14.00,2013-03-06 12:30:00,
2013-03-06 07:32:00,31.6,30.6,29.80,NNE,28,0.0,0.0,96,0.00,,---,0.00,9.00,VWS V14.00,2013-03-06 12:32:00,
2013-03-06 07:37:00,31.6,30.6,29.80,NNE,28,0.0,0.0,96,0.00,,---,0.00,11.00,VWS V14.00,2013-03-06 12:37:00,
2013-03-06 07:42:00,31.7,30.7,29.81,NNE,28,0.0,0.0,96,0.00,,---,0.00,12.00,VWS V14.00,2013-03-06 12:42:00,
2013-03-06 07:47:00,31.7,30.7,29.81,NNE,28,0.0,0.0,96,0.00,,---,0.00,14.00,VWS V14.00,2013-03-06 12:47:00,
2013-03-06 07:52:00,31.7,30.7,29.82,NNE,28,0.0,0.0,96,0.00,,---,0.00,16.00,VWS V14.00,2013-03-06 12:52:00,
2013-03-06 07:57:00,31.8,30.8,29.82,NNE,28,0.0,0.0,96,0.00,,---,0.00,19.00,VWS V14.00,2013-03-06 12:57:00,
2013-03-06 08:00:00,33.0,32.0,29.85,NNE,13,0.0,0.0,96,0.00,,---,0.00,44.00,VWS V14.00,2013-03-06 13:00:00,
2013-03-06 08:02:00,31.9,30.9,29.82,NNE,28,0.0,0.0,96,0.00,,---,0.00,21.00,VWS V14.00,2013-03-06 13:02:00,
2013-03-06 08:07:00,32.0,31.0,29.82,NNE,28,0.0,0.0,96,0.00,,---,0.00,23.00,VWS V14.00,2013-03-06 13:07:00,
2013-03-06 08:12:00,32.0,31.0,29.83,NNE,28,0.0,0.0,96,0.00,,---,0.00,25.00,VWS V14.00,2013-03-06 13:12:00,
2013-03-06 08:17:00,32.1,31.1,29.83,NNE,28,0.0,0.0,96,0.00,,---,0.00,26.00,VWS V14.00,2013-03-06 13:17:00,
2013-03-06 08:22:00,32.2,31.2,29.83,NNE,28,0.0,0.0,96,0.00,,---,0.00,28.00,VWS V14.00,2013-03-06 13:22:00,
2013-03-06 08:27:00,32.3,31.3,29.83,NNE,28,0.0,0.0,96,0.00,,---,0.00,30.00,VWS V14.00,2013-03-06 13:27:00,
2013-03-06 08:30:00,33.5,32.2,29.86,NNE,15,0.0,0.0,95,0.00,,---,0.00,49.00,VWS V14.00,2013-03-06 13:30:00,
2013-03-06 08:32:00,32.5,31.5,29.83,NNE,29,0.0,0.0,96,0.00,,---,0.00,30.00,VWS V14.00,2013-03-06 13:32:00,
2013-03-06 08:37:00,32.5,31.5,29.84,NNE,30,0.0,0.0,96,0.00,,---,0.00,32.00,VWS V14.00,2013-03-06 13:37:00,
2013-03-06 08:43:00,32.6,31.6,29.84,NNE,31,0.0,0.0,96,0.00,,---,0.00,32.00,VWS V14.00,2013-03-06 13:43:00,
2013-03-06 08:48:00,32.7,31.7,29.85,NNE,33,0.0,0.0,96,0.00,,---,0.00,33.00,VWS V14.00,2013-03-06 13:48:00,
2013-03-06 08:53:00,32.9,31.9,29.85,NE,34,0.0,0.0,96,0.00,,---,0.00,35.00,VWS V14.00,2013-03-06 13:53:00,
2013-03-06 08:58:00,32.9,31.9,29.85,NNW,329,0.0,0.0,96,0.00,,---,0.00,39.00,VWS V14.00,2013-03-06 13:58:00,
2013-03-06 09:00:00,33.9,32.4,29.89,NE,36,5.0,8.0,94,0.00,,---,0.00,91.00,VWS V14.00,2013-03-06 14:00:00,
2013-03-06 09:03:00,33.0,32.0,29.86,NNE,16,0.0,0.0,96,0.00,,---,0.00,46.00,VWS V14.00,2013-03-06 14:03:00,
2013-03-06 09:08:00,33.1,32.1,29.86,NNE,19,0.0,0.0,96,0.00,,---,0.00,44.00,VWS V14.00,2013-03-06 14:08:00,
2013-03-06 09:13:00,33.2,31.9,29.86,NNE,18,0.0,0.0,95,0.00,,---,0.00,44.00,VWS V14.00,2013-03-06 14:13:00,
2013-03-06 09:18:00,33.3,32.0,29.86,NE,42,0.0,0.0,95,0.00,,---,0.00,46.00,VWS V14.00,2013-03-06 14:18:00,
2013-03-06 09:23:00,33.4,32.1,29.86,NE,35,0.0,0.0,95,0.00,,---,0.00,49.00,VWS V14.00,2013-03-06 14:23:00,
2013-03-06 09:28:00,33.5,32.2,29.86,NE,36,0.0,0.0,95,0.00,,---,0.00,51.00,VWS V14.00,2013-03-06 14:28:00,
2013-03-06 09:30:00,34.2,32.4,29.90,NNE,21,6.0,12.0,93,0.04,,---,0.02,211.00,VWS V14.00,2013-03-06 14:30:00,
2013-03-06 09:33:00,33.5,32.2,29.86,NNE,22,0.0,0.0,95,0.00,,---,0.00,53.00,VWS V14.00,2013-03-06 14:33:00,
2013-03-06 09:38:00,33.6,32.3,29.87,NNE,29,4.0,4.0,95,0.00,,---,0.00,60.00,VWS V14.00,2013-03-06 14:38:00,
2013-03-06 09:43:00,33.6,32.3,29.87,NNE,28,3.0,5.0,95,0.00,,---,0.00,77.00,VWS V14.00,2013-03-06 14:43:00,
2013-03-06 09:48:00,33.7,32.4,29.87,NNE,30,4.0,8.0,95,0.00,,---,0.00,93.00,VWS V14.00,2013-03-06 14:48:00,
2013-03-06 09:53:00,33.8,32.5,29.88,NNE,17,3.0,8.0,95,0.00,,---,0.00,98.00,VWS V14.00,2013-03-06 14:53:00,
2013-03-06 09:58:00,33.9,32.4,29.88,NE,36,4.0,8.0,94,0.00,,---,0.00,88.00,VWS V14.00,2013-03-06 14:58:00,
2013-03-06 10:00:00,34.4,32.3,29.92,NNE,18,7.0,11.0,92,0.07,,---,0.04,230.00,VWS V14.00,2013-03-06 15:00:00,
2013-03-06 10:03:00,33.8,32.3,29.88,NNE,25,4.0,8.0,94,0.00,,---,0.00,93.00,VWS V14.00,2013-03-06 15:03:00,
2013-03-06 10:08:00,33.8,32.3,29.89,NE,37,2.0,8.0,94,0.00,,---,0.00,95.00,VWS V14.00,2013-03-06 15:08:00,
2013-03-06 10:13:00,33.8,32.3,29.89,NNE,28,9.0,9.0,94,0.00,,---,0.01,141.00,VWS V14.00,2013-03-06 15:13:00,
2013-03-06 10:18:00,33.8,32.3,29.89,East,82,3.0,12.0,94,0.00,,---,0.01,204.00,VWS V14.00,2013-03-06 15:18:00,
2013-03-06 10:23:00,34.0,32.5,29.89,NE,53,3.0,12.0,94,0.00,,---,0.01,220.00,VWS V14.00,2013-03-06 15:23:00,
2013-03-06 10:28:00,34.2,32.4,29.90,NE,41,6.0,12.0,93,0.04,,---,0.02,220.00,VWS V14.00,2013-03-06 15:28:00,
2013-03-06 10:30:00,34.6,32.8,29.92,NE,44,2.0,10.0,93,0.05,,---,0.06,352.00,VWS V14.00,2013-03-06 15:30:00,
2013-03-06 10:33:00,34.2,32.4,29.90,North,360,5.0,8.0,93,0.04,,---,0.02,237.00,VWS V14.00,2013-03-06 15:33:00,
2013-03-06 10:38:00,34.3,32.5,29.91,NNE,31,4.0,11.0,93,0.04,,---,0.02,216.00,VWS V14.00,2013-03-06 15:38:00,
2013-03-06 10:43:00,34.3,32.5,29.91,NNE,30,3.0,11.0,93,0.00,,---,0.02,218.00,VWS V14.00,2013-03-06 15:43:00,
2013-03-06 10:48:00,34.3,32.2,29.91,NNE,19,4.0,11.0,92,0.00,,---,0.03,186.00,VWS V14.00,2013-03-06 15:48:00,
2013-03-06 10:53:00,34.3,32.2,29.91,NE,42,3.0,11.0,92,0.00,,---,0.03,243.00,VWS V14.00,2013-03-06 15:53:00,
2013-03-06 10:58:00,34.4,32.3,29.91,North,360,3.0,11.0,92,0.07,,---,0.04,216.00,VWS V14.00,2013-03-06 15:58:00,
2013-03-06 11:00:00,35.0,32.6,29.93,NNE,30,6.0,11.0,91,0.07,,---,0.11,359.00,VWS V14.00,2013-03-06 16:00:00,
2013-03-06 11:03:00,34.4,32.3,29.92,NNE,31,0.0,7.0,92,0.07,,---,0.04,206.00,VWS V14.00,2013-03-06 16:03:00,
2013-03-06 11:08:00,34.4,32.3,29.92,NE,37,8.0,8.0,92,0.04,,---,0.04,232.00,VWS V14.00,2013-03-06 16:08:00,
2013-03-06 11:13:00,34.3,32.2,29.92,NNE,33,4.0,8.0,92,0.04,,---,0.05,246.00,VWS V14.00,2013-03-06 16:13:00,
2013-03-06 11:18:00,34.2,32.1,29.92,NE,49,1.0,10.0,92,0.08,,---,0.06,278.00,VWS V14.00,2013-03-06 16:18:00,
2013-03-06 11:23:00,34.2,32.1,29.92,NE,49,7.0,10.0,92,0.08,,---,0.06,304.00,VWS V14.00,2013-03-06 16:23:00,
2013-03-06 11:28:00,34.5,32.7,29.92,NE,37,3.0,10.0,93,0.06,,---,0.06,325.00,VWS V14.00,2013-03-06 16:28:00,
2013-03-06 11:30:00,36.7,33.2,29.94,NNE,22,2.0,10.0,87,0.12,,---,0.16,714.00,VWS V14.00,2013-03-06 16:30:00,
2013-03-06 11:34:00,34.7,32.6,29.92,NE,44,3.0,4.0,92,0.04,,---,0.07,341.00,VWS V14.00,2013-03-06 16:34:00,
2013-03-06 11:39:00,34.9,32.8,29.93,North,360,3.0,8.0,92,0.10,,---,0.08,401.00,VWS V14.00,2013-03-06 16:39:00,
2013-03-06 11:44:00,35.0,32.6,29.93,North,360,4.0,11.0,91,0.10,,---,0.08,436.00,VWS V14.00,2013-03-06 16:44:00,
2013-03-06 11:49:00,35.0,32.6,29.93,North,9,3.0,11.0,91,0.06,,---,0.09,276.00,VWS V14.00,2013-03-06 16:49:00,
2013-03-06 11:54:00,35.0,32.6,29.93,NNE,17,4.0,11.0,91,0.13,,---,0.10,367.00,VWS V14.00,2013-03-06 16:54:00,
2013-03-06 11:59:00,35.0,32.6,29.93,NNE,25,4.0,11.0,91,0.10,,---,0.10,341.00,VWS V14.00,2013-03-06 16:59:00,
2013-03-06 12:00:00,38.6,32.7,29.94,NE,47,1.0,13.0,79,0.12,,---,0.25,466.00,VWS V14.00,2013-03-06 17:00:00,
2013-03-06 12:04:00,35.1,32.7,29.93,NE,44,3.0,7.0,91,0.07,,---,0.11,373.00,VWS V14.00,2013-03-06 17:04:00,
2013-03-06 12:09:00,35.4,33.0,29.94,North,5,5.0,7.0,91,0.15,,---,0.12,401.00,VWS V14.00,2013-03-06 17:09:00,
2013-03-06 12:14:00,35.6,33.0,29.94,NNE,17,5.0,7.0,90,0.08,,---,0.13,371.00,VWS V14.00,2013-03-06 17:14:00,
2013-03-06 12:19:00,35.8,32.9,29.94,NNE,22,2.0,7.0,89,0.17,,---,0.14,411.00,VWS V14.00,2013-03-06 17:19:00,
2013-03-06 12:24:00,36.1,32.9,29.94,NNE,29,7.0,10.0,88,0.08,,---,0.15,487.00,VWS V14.00,2013-03-06 17:24:00,
2013-03-06 12:29:00,36.5,33.3,29.94,NNE,21,3.0,10.0,88,0.18,,---,0.16,526.00,VWS V14.00,2013-03-06 17:29:00,
2013-03-06 12:30:00,39.7,32.8,29.95,North,5,0.0,11.0,76,0.18,,---,0.32,427.00,VWS V14.00,2013-03-06 17:30:00,
2013-03-06 12:34:00,36.9,33.1,29.94,ENE,78,2.0,13.0,86,0.10,,---,0.17,735.00,VWS V14.00,2013-03-06 17:34:00,
2013-03-06 12:39:00,37.7,33.6,29.94,NNE,32,2.0,13.0,85,0.15,,---,0.18,1078.00,VWS V14.00,2013-03-06 17:39:00,
2013-03-06 12:44:00,38.5,34.1,29.94,NE,38,0.0,13.0,84,0.32,,---,0.20,886.00,VWS V14.00,2013-03-06 17:44:00,
2013-03-06 12:49:00,38.8,33.5,29.94,NNE,15,4.0,13.0,81,0.30,,---,0.22,615.00,VWS V14.00,2013-03-06 17:49:00,
2013-03-06 12:54:00,38.8,33.8,29.94,ENE,75,4.0,13.0,82,0.29,,---,0.23,381.00,VWS V14.00,2013-03-06 17:54:00,
2013-03-06 12:59:00,38.7,32.8,29.95,NNE,31,10.0,13.0,79,0.12,,---,0.24,446.00,VWS V14.00,2013-03-06 17:59:00,
2013-03-06 13:00:00,39.7,32.1,29.95,NNE,14,7.0,13.0,74,0.11,,---,0.36,367.00,VWS V14.00,2013-03-06 18:00:00,
2013-03-06 13:04:00,38.4,32.5,29.94,North,11,8.0,9.0,79,0.23,,---,0.26,519.00,VWS V14.00,2013-03-06 18:04:00,
2013-03-06 13:09:00,38.5,32.9,29.94,NNE,33,0.0,11.0,80,0.09,,---,0.27,515.00,VWS V14.00,2013-03-06 18:09:00,
2013-03-06 13:14:00,38.8,32.9,29.95,NNE,26,1.0,11.0,79,0.19,,---,0.28,517.00,VWS V14.00,2013-03-06 18:14:00,
2013-03-06 13:19:00,39.3,33.3,29.94,NE,34,7.0,11.0,79,0.09,,---,0.29,654.00,VWS V14.00,2013-03-06 18:19:00,
2013-03-06 13:24:00,39.7,33.1,29.95,NE,46,1.0,11.0,77,0.18,,---,0.30,613.00,VWS V14.00,2013-03-06 18:24:00,
2013-03-06 13:29:00,39.7,32.8,29.95,NE,47,4.0,11.0,76,0.10,,---,0.31,427.00,VWS V14.00,2013-03-06 18:29:00,
2013-03-06 13:30:00,40.6,31.6,29.96,NNE,17,3.0,11.0,70,0.05,,---,0.39,114.00,VWS V14.00,2013-03-06 18:30:00,
2013-03-06 13:34:00,39.8,33.2,29.94,NNW,342,2.0,7.0,77,0.15,,---,0.32,550.00,VWS V14.00,2013-03-06 18:34:00,
2013-03-06 13:39:00,40.0,33.1,29.94,North,9,3.0,7.0,76,0.08,,---,0.33,450.00,VWS V14.00,2013-03-06 18:39:00,
2013-03-06 13:44:00,40.0,32.7,29.94,NNW,348,1.0,7.0,75,0.14,,---,0.34,408.00,VWS V14.00,2013-03-06 18:44:00,
2013-03-06 13:49:00,39.7,32.8,29.95,NNE,31,7.0,9.0,76,0.08,,---,0.34,332.00,VWS V14.00,2013-03-06 18:49:00,
2013-03-06 13:54:00,39.7,32.4,29.95,NW,319,2.0,13.0,75,0.06,,---,0.35,304.00,VWS V14.00,2013-03-06 18:54:00,
2013-03-06 13:59:00,39.6,31.7,29.95,ENE,57,0.0,13.0,73,0.13,,---,0.36,318.00,VWS V14.00,2013-03-06 18:59:00,
2013-03-06 14:00:00,39.5,31.6,29.97,NE,42,6.0,11.0,73,0.00,,---,0.41,237.00,VWS V14.00,2013-03-06 19:00:00,
2013-03-06 14:04:00,39.7,31.8,29.95,NE,40,1.0,11.0,73,0.07,,---,0.36,362.00,VWS V14.00,2013-03-06 19:04:00,
2013-03-06 14:09:00,40.1,31.8,29.95,NE,38,2.0,11.0,72,0.05,,---,0.37,538.00,VWS V14.00,2013-03-06 19:09:00,
2013-03-06 14:14:00,40.4,31.8,29.95,NNE,27,4.0,11.0,71,0.11,,---,0.38,371.00,VWS V14.00,2013-03-06 19:14:00,
2013-03-06 14:19:00,40.5,31.9,29.95,NE,39,2.0,11.0,71,0.11,,---,0.38,322.00,VWS V14.00,2013-03-06 19:19:00,
2013-03-06 14:24:00,40.6,32.0,29.95,ENE,77,3.0,11.0,71,0.06,,---,0.38,346.00,VWS V14.00,2013-03-06 19:24:00,
2013-03-06 14:29:00,40.6,31.6,29.95,North,360,4.0,11.0,70,0.05,,---,0.39,153.00,VWS V14.00,2013-03-06 19:29:00,
2013-03-06 14:30:00,39.6,31.7,29.99,NNE,23,5.0,10.0,73,0.00,,---,0.42,93.00,VWS V14.00,2013-03-06 19:30:00,
2013-03-06 14:35:00,40.3,31.7,29.96,NNW,337,7.0,10.0,71,0.05,,---,0.39,86.00,VWS V14.00,2013-03-06 19:35:00,
2013-03-06 14:39:00,40.0,32.1,29.96,NE,46,3.0,10.0,73,0.07,,---,0.40,114.00,VWS V14.00,2013-03-06 19:39:00,
2013-03-06 14:45:00,39.7,31.8,29.97,NNE,24,1.0,10.0,73,0.06,,---,0.40,142.00,VWS V14.00,2013-03-06 19:45:00,
2013-03-06 14:50:00,39.6,32.0,29.97,NNE,17,2.0,10.0,74,0.04,,---,0.40,181.00,VWS V14.00,2013-03-06 19:50:00,
2013-03-06 14:55:00,39.6,31.7,29.97,North,5,3.0,10.0,73,0.00,,---,0.40,244.00,VWS V14.00,2013-03-06 19:55:00,
2013-03-06 15:00:00,39.6,31.7,29.97,NNW,339,5.0,11.0,73,0.00,,---,0.41,237.00,VWS V14.00,2013-03-06 20:00:00,
2013-03-06 15:05:00,39.6,31.3,29.98,NW,313,2.0,10.0,72,0.00,,---,0.41,251.00,VWS V14.00,2013-03-06 20:05:00,
2013-03-06 15:10:00,39.6,31.3,29.98,NNE,29,3.0,10.0,72,0.05,,---,0.42,246.00,VWS V14.00,2013-03-06 20:10:00,
2013-03-06 15:15:00,39.7,31.4,29.98,NNE,19,6.0,10.0,72,0.05,,---,0.42,232.00,VWS V14.00,2013-03-06 20:15:00,
2013-03-06 15:20:00,39.7,31.4,29.99,North,5,2.0,10.0,72,0.05,,---,0.42,167.00,VWS V14.00,2013-03-06 20:20:00,
2013-03-06 15:25:00,39.7,31.4,29.99,NNW,329,5.0,10.0,72,0.04,,---,0.42,118.00,VWS V14.00,2013-03-06 20:25:00,
2013-03-06 15:30:00,39.6,31.7,29.99,North,355,2.0,10.0,73,0.00,,---,0.42,93.00,VWS V14.00,2013-03-06 20:30:00,
2013-03-06 15:35:00,39.5,31.6,29.99,North,350,0.0,6.0,73,0.00,,---,0.42,91.00,VWS V14.00,2013-03-06 20:35:00,
2013-03-06 15:40:00,39.3,31.0,29.99,North,355,1.0,6.0,72,0.00,,---,0.42,105.00,VWS V14.00,2013-03-06 20:40:00,
2013-03-06 15:45:00,39.2,31.0,30.00,NNE,17,4.0,8.0,72,0.00,,---,0.43,127.00,VWS V14.00,2013-03-06 20:45:00,
2013-03-06 15:50:00,39.3,31.0,30.00,NNW,333,6.0,8.0,72,0.00,,---,0.43,125.00,VWS V14.00,2013-03-06 20:50:00,
2013-03-06 15:55:00,39.3,31.0,30.00,NNE,26,2.0,8.0,72,0.00,,---,0.43,125.00,VWS V14.00,2013-03-06 20:55:00,
2013-03-06 16:00:00,39.3,31.0,30.00,NNE,32,0.0,9.0,72,0.00,,---,0.43,113.00,VWS V14.00,2013-03-06 21:00:00,
2013-03-06 16:05:00,39.3,31.0,30.00,NNE,14,2.0,6.0,72,0.00,,---,0.43,91.00,VWS V14.00,2013-03-06 21:05:00,
2013-03-06 16:10:00,39.2,31.0,30.00,NNW,334,0.0,6.0,72,0.00,,---,0.44,86.00,VWS V14.00,2013-03-06 21:10:00,
2013-03-06 16:15:00,39.2,31.0,30.00,NNW,332,5.0,6.0,72,0.00,,---,0.44,88.00,VWS V14.00,2013-03-06 21:15:00,
2013-03-06 16:20:00,39.2,31.0,30.01,NNE,29,0.0,6.0,72,0.00,,---,0.44,84.00,VWS V14.00,2013-03-06 21:20:00,
2013-03-06 16:25:00,39.2,31.0,30.01,NNW,338,4.0,6.0,72,0.00,,---,0.44,83.00,VWS V14.00,2013-03-06 21:25:00,
2013-03-06 16:30:00,39.2,31.3,30.01,NNW,346,2.0,6.0,73,0.00,,---,0.44,77.00,VWS V14.00,2013-03-06 21:30:00,
2013-03-06 16:35:00,39.2,31.0,30.01,NNW,346,0.0,2.0,72,0.00,,---,0.44,77.00,VWS V14.00,2013-03-06 21:35:00,
2013-03-06 16:40:00,39.1,31.2,30.02,NNW,347,1.0,2.0,73,0.00,,---,0.44,74.00,VWS V14.00,2013-03-06 21:40:00,
2013-03-06 16:45:00,39.2,31.0,30.02,NNE,22,1.0,4.0,72,0.00,,---,0.44,70.00,VWS V14.00,2013-03-06 21:45:00,
2013-03-06 16:50:00,39.2,31.0,30.02,North,5,2.0,5.0,72,0.00,,---,0.44,63.00,VWS V14.00,2013-03-06 21:50:00,
2013-03-06 16:55:00,39.1,30.9,30.03,NNE,17,2.0,5.0,72,0.00,,---,0.44,67.00,VWS V14.00,2013-03-06 21:55:00,
2013-03-06 17:00:00,39.1,30.9,30.03,North,355,0.0,5.0,72,0.00,,---,0.44,67.00,VWS V14.00,2013-03-06 22:00:00,
2013-03-06 17:06:00,39.0,30.8,30.03,NNW,342,0.0,2.0,72,0.00,,---,0.44,69.00,VWS V14.00,2013-03-06 22:06:00,
2013-03-06 17:11:00,39.0,30.8,30.03,NNW,342,0.0,2.0,72,0.00,,---,0.44,69.00,VWS V14.00,2013-03-06 22:11:00,
2013-03-06 17:16:00,39.0,31.1,30.03,NNW,342,0.0,2.0,73,0.00,,---,0.44,58.00,VWS V14.00,2013-03-06 22:16:00,
2013-03-06 17:21:00,39.0,30.8,30.04,NNW,340,1.0,2.0,72,0.00,,---,0.44,44.00,VWS V14.00,2013-03-06 22:21:00,
2013-03-06 17:26:00,38.9,31.0,30.04,NNW,340,0.0,2.0,73,0.00,,---,0.44,30.00,VWS V14.00,2013-03-06 22:26:00,
2013-03-06 17:30:00,37.9,30.0,30.05,North,350,0.0,0.0,73,0.00,,---,0.44,0.00,VWS V14.00,2013-03-06 22:30:00,
2013-03-06 17:31:00,38.9,30.7,30.04,NNW,341,0.0,2.0,72,0.00,,---,0.44,21.00,VWS V14.00,2013-03-06 22:31:00,
2013-03-06 17:36:00,38.8,30.6,30.04,NNW,341,0.0,1.0,72,0.00,,---,0.44,18.00,VWS V14.00,2013-03-06 22:36:00,
2013-03-06 17:41:00,38.7,30.5,30.04,NNW,341,0.0,1.0,72,0.00,,---,0.44,12.00,VWS V14.00,2013-03-06 22:41:00,
2013-03-06 17:46:00,38.6,30.4,30.04,NNW,341,0.0,1.0,72,0.00,,---,0.44,12.00,VWS V14.00,2013-03-06 22:46:00,
2013-03-06 17:51:00,38.6,30.4,30.05,North,350,0.0,2.0,72,0.00,,---,0.44,9.00,VWS V14.00,2013-03-06 22:51:00,
2013-03-06 17:56:00,38.6,30.4,30.05,North,350,0.0,2.0,72,0.00,,---,0.44,7.00,VWS V14.00,2013-03-06 22:56:00,
2013-03-06 18:00:00,36.5,30.6,30.06,North,350,0.0,1.0,79,0.00,,---,0.44,0.00,VWS V14.00,2013-03-06 23:00:00,
2013-03-06 18:01:00,38.5,30.3,30.05,North,350,0.0,2.0,72,0.00,,---,0.44,5.00,VWS V14.00,2013-03-06 23:01:00,
2013-03-06 18:06:00,38.4,30.2,30.05,North,350,0.0,0.0,72,0.00,,---,0.44,0.00,VWS V14.00,2013-03-06 23:06:00,
2013-03-06 18:11:00,38.4,30.2,30.05,North,350,0.0,0.0,72,0.00,,---,0.44,0.00,VWS V14.00,2013-03-06 23:11:00,
2013-03-06 18:16:00,38.2,30.0,30.05,North,350,0.0,0.0,72,0.00,,---,0.44,0.00,VWS V14.00,2013-03-06 23:16:00,
2013-03-06 18:21:00,38.1,29.9,30.05,North,350,0.0,0.0,72,0.00,,---,0.44,0.00,VWS V14.00,2013-03-06 23:21:00,
2013-03-06 18:26:00,38.0,30.1,30.05,North,350,0.0,0.0,73,0.00,,---,0.44,0.00,VWS V14.00,2013-03-06 23:26:00,
2013-03-06 18:30:00,35.9,31.0,30.07,NW,312,1.0,4.0,82,0.00,,---,0.44,0.00,VWS V14.00,2013-03-06 23:30:00,
2013-03-06 18:31:00,37.9,30.0,30.05,North,350,0.0,0.0,73,0.00,,---,0.44,0.00,VWS V14.00,2013-03-06 23:31:00,
2013-03-06 18:36:00,37.7,29.8,30.05,North,350,0.0,0.0,73,0.00,,---,0.44,0.00,VWS V14.00,2013-03-06 23:36:00,
2013-03-06 18:41:00,37.6,30.4,30.06,North,350,0.0,1.0,75,0.00,,---,0.44,0.00,VWS V14.00,2013-03-06 23:41:00,
2013-03-06 18:46:00,37.3,30.8,30.06,North,350,0.0,1.0,77,0.00,,---,0.44,0.00,VWS V14.00,2013-03-06 23:46:00,
2013-03-06 18:51:00,36.9,30.7,30.06,North,350,0.0,1.0,78,0.00,,---,0.44,0.00,VWS V14.00,2013-03-06 23:51:00,
2013-03-06 18:56:00,36.6,30.1,30.06,North,350,0.0,1.0,77,0.00,,---,0.44,0.00,VWS V14.00,2013-03-06 23:56:00,
2013-03-06 19:00:00,35.0,30.7,30.09,NW,312,0.0,1.0,84,0.00,,---,0.44,0.00,VWS V14.00,2013-03-07 00:00:00,
2013-03-06 19:01:00,36.5,30.6,30.06,North,350,0.0,0.0,79,0.00,,---,0.44,0.00,VWS V14.00,2013-03-07 00:01:00,
2013-03-06 19:06:00,36.5,31.2,30.07,North,350,0.0,0.0,81,0.00,,---,0.44,0.00,VWS V14.00,2013-03-07 00:06:00,
2013-03-06 19:11:00,36.4,31.4,30.07,North,350,0.0,0.0,82,0.00,,---,0.44,0.00,VWS V14.00,2013-03-07 00:11:00,
2013-03-06 19:16:00,36.3,31.3,30.07,North,350,0.0,0.0,82,0.00,,---,0.44,0.00,VWS V14.00,2013-03-07 00:16:00,
2013-03-06 19:21:00,36.2,31.2,30.07,North,350,0.0,0.0,82,0.00,,---,0.44,0.00,VWS V14.00,2013-03-07 00:21:00,
2013-03-06 19:26:00,36.1,30.8,30.07,NW,314,4.0,4.0,81,0.00,,---,0.44,0.00,VWS V14.00,2013-03-07 00:26:00,
2013-03-06 19:30:00,34.6,31.4,30.09,NW,312,0.0,2.0,88,0.00,,---,0.44,0.00,VWS V14.00,2013-03-07 00:30:00,
2013-03-06 19:31:00,35.9,31.0,30.07,NW,312,0.0,1.0,82,0.00,,---,0.44,0.00,VWS V14.00,2013-03-07 00:31:00,
2013-03-06 19:36:00,35.5,30.9,30.08,NW,312,0.0,1.0,83,0.00,,---,0.44,0.00,VWS V14.00,2013-03-07 00:36:00,
2013-03-06 19:41:00,35.4,30.8,30.08,NW,312,0.0,1.0,83,0.00,,---,0.44,0.00,VWS V14.00,2013-03-07 00:41:00,
2013-03-06 19:46:00,35.3,30.7,30.08,NW,312,0.0,1.0,83,0.00,,---,0.44,0.00,VWS V14.00,2013-03-07 00:46:00,
2013-03-06 19:51:00,35.2,30.9,30.08,NW,312,0.0,1.0,84,0.00,,---,0.44,0.00,VWS V14.00,2013-03-07 00:51:00,
2013-03-06 19:56:00,35.1,30.8,30.08,NW,312,0.0,1.0,84,0.00,,---,0.44,0.00,VWS V14.00,2013-03-07 00:56:00,
2013-03-06 20:00:00,34.8,31.6,30.11,NW,312,0.0,2.0,88,0.00,,---,0.44,0.00,VWS V14.00,2013-03-07 01:00:00,
2013-03-06 20:02:00,35.0,30.7,30.09,NW,312,0.0,0.0,84,0.00,,---,0.44,0.00,VWS V14.00,2013-03-07 01:02:00,
2013-03-06 20:07:00,34.9,30.9,30.09,NW,312,0.0,0.0,85,0.00,,---,0.44,0.00,VWS V14.00,2013-03-07 01:07:00,
2013-03-06 20:12:00,34.8,30.8,30.09,NW,312,0.0,0.0,85,0.00,,---,0.44,0.00,VWS V14.00,2013-03-07 01:12:00,
2013-03-06 20:17:00,34.7,31.0,30.09,NW,312,0.0,2.0,86,0.00,,---,0.44,0.00,VWS V14.00,2013-03-07 01:17:00,
2013-03-06 20:22:00,34.6,31.1,30.10,NW,312,0.0,2.0,87,0.00,,---,0.44,0.00,VWS V14.00,2013-03-07 01:22:00,
2013-03-06 20:27:00,34.6,31.1,30.09,NW,312,0.0,2.0,87,0.00,,---,0.44,0.00,VWS V14.00,2013-03-07 01:27:00,
2013-03-06 20:30:00,34.9,31.7,30.11,NW,312,0.0,1.0,88,0.00,,---,0.44,0.00,VWS V14.00,2013-03-07 01:30:00,
2013-03-06 20:32:00,34.6,31.4,30.09,NW,312,0.0,0.0,88,0.00,,---,0.44,0.00,VWS V14.00,2013-03-07 01:32:00,
2013-03-06 20:37:00,34.7,31.5,30.10,NW,312,0.0,2.0,88,0.00,,---,0.44,0.00,VWS V14.00,2013-03-07 01:37:00,
2013-03-06 20:42:00,34.7,31.5,30.10,NW,312,0.0,2.0,88,0.00,,---,0.44,0.00,VWS V14.00,2013-03-07 01:42:00,
2013-03-06 20:47:00,34.6,31.4,30.10,NW,312,0.0,2.0,88,0.00,,---,0.44,0.00,VWS V14.00,2013-03-07 01:47:00,
2013-03-06 20:52:00,34.7,31.5,30.10,NW,312,0.0,2.0,88,0.00,,---,0.44,0.00,VWS V14.00,2013-03-07 01:52:00,
2013-03-06 20:57:00,34.8,31.6,30.10,NW,312,0.0,2.0,88,0.00,,---,0.44,0.00,VWS V14.00,2013-03-07 01:57:00,
2013-03-06 21:00:00,34.9,31.7,30.11,NW,312,0.0,4.0,88,0.00,,---,0.44,0.00,VWS V14.00,2013-03-07 02:00:00,
2013-03-06 21:02:00,34.8,31.6,30.11,NW,312,0.0,0.0,88,0.00,,---,0.44,0.00,VWS V14.00,2013-03-07 02:02:00,
2013-03-06 21:07:00,34.8,31.6,30.11,NW,312,0.0,0.0,88,0.00,,---,0.44,0.00,VWS V14.00,2013-03-07 02:07:00,
2013-03-06 21:12:00,34.9,31.7,30.11,NW,312,0.0,0.0,88,0.00,,---,0.44,0.00,VWS V14.00,2013-03-07 02:12:00,
2013-03-06 21:17:00,34.9,31.7,30.11,NW,312,0.0,0.0,88,0.00,,---,0.44,0.00,VWS V14.00,2013-03-07 02:17:00,
2013-03-06 21:22:00,34.9,31.7,30.11,NW,312,0.0,0.0,88,0.00,,---,0.44,0.00,VWS V14.00,2013-03-07 02:22:00,
2013-03-06 21:27:00,34.9,31.7,30.12,NW,312,0.0,1.0,88,0.00,,---,0.44,0.00,VWS V14.00,2013-03-07 02:27:00,
2013-03-06 21:30:00,34.7,31.8,30.11,NW,311,0.0,2.0,89,0.00,,---,0.44,0.00,VWS V14.00,2013-03-07 02:30:00,
2013-03-06 21:32:00,35.0,31.8,30.11,NW,312,0.0,0.0,88,0.00,,---,0.44,0.00,VWS V14.00,2013-03-07 02:32:00,
2013-03-06 21:37:00,35.0,31.8,30.11,NW,312,0.0,0.0,88,0.00,,---,0.44,0.00,VWS V14.00,2013-03-07 02:37:00,
2013-03-06 21:42:00,35.0,31.8,30.11,NW,312,1.0,4.0,88,0.00,,---,0.44,0.00,VWS V14.00,2013-03-07 02:42:00,
2013-03-06 21:47:00,35.0,31.8,30.11,NW,312,0.0,4.0,88,0.00,,---,0.44,0.00,VWS V14.00,2013-03-07 02:47:00,
2013-03-06 21:52:00,35.0,31.8,30.11,NW,312,0.0,4.0,88,0.00,,---,0.44,0.00,VWS V14.00,2013-03-07 02:52:00,
2013-03-06 21:57:00,34.9,31.7,30.11,NW,312,0.0,4.0,88,0.00,,---,0.44,0.00,VWS V14.00,2013-03-07 02:57:00,
2013-03-06 22:00:00,34.4,31.8,30.12,NW,311,0.0,0.0,90,0.00,,---,0.44,0.00,VWS V14.00,2013-03-07 03:00:00,
2013-03-06 22:02:00,34.9,31.7,30.11,NW,312,0.0,0.0,88,0.00,,---,0.44,0.00,VWS V14.00,2013-03-07 03:02:00,
2013-03-06 22:07:00,34.9,32.0,30.11,NW,312,0.0,2.0,89,0.00,,---,0.44,0.00,VWS V14.00,2013-03-07 03:07:00,
2013-03-06 22:12:00,34.9,32.0,30.11,NW,311,0.0,2.0,89,0.00,,---,0.44,0.00,VWS V14.00,2013-03-07 03:12:00,
2013-03-06 22:17:00,35.0,32.1,30.11,NW,311,0.0,2.0,89,0.00,,---,0.44,0.00,VWS V14.00,2013-03-07 03:17:00,
2013-03-06 22:22:00,34.9,32.0,30.11,NW,311,0.0,2.0,89,0.00,,---,0.44,0.00,VWS V14.00,2013-03-07 03:22:00,
2013-03-06 22:27:00,34.8,31.9,30.11,NW,311,0.0,2.0,89,0.00,,---,0.44,0.00,VWS V14.00,2013-03-07 03:27:00,
2013-03-06 22:30:00,34.6,32.0,30.11,NW,311,0.0,2.0,90,0.00,,---,0.44,0.00,VWS V14.00,2013-03-07 03:30:00,
2013-03-06 22:32:00,34.7,31.8,30.11,NW,311,0.0,0.0,89,0.00,,---,0.44,0.00,VWS V14.00,2013-03-07 03:32:00,
2013-03-06 22:37:00,34.6,31.7,30.11,NW,311,0.0,0.0,89,0.00,,---,0.44,0.00,VWS V14.00,2013-03-07 03:37:00,
2013-03-06 22:42:00,34.5,31.6,30.11,NW,311,0.0,0.0,89,0.00,,---,0.44,0.00,VWS V14.00,2013-03-07 03:42:00,
2013-03-06 22:48:00,34.5,31.6,30.11,NW,311,0.0,0.0,89,0.00,,---,0.44,0.00,VWS V14.00,2013-03-07 03:48:00,
2013-03-06 22:53:00,34.5,31.9,30.12,NW,311,0.0,0.0,90,0.00,,---,0.44,0.00,VWS V14.00,2013-03-07 03:53:00,
2013-03-06 22:58:00,34.5,31.9,30.12,NW,311,0.0,0.0,90,0.00,,---,0.44,0.00,VWS V14.00,2013-03-07 03:58:00,
2013-03-06 23:00:00,34.9,32.3,30.11,NW,311,0.0,1.0,90,0.00,,---,0.00,0.00,VWS V14.00,2013-03-07 04:00:00,
2013-03-06 23:03:00,34.4,31.8,30.12,NW,311,0.0,0.0,90,0.00,,---,0.44,0.00,VWS V14.00,2013-03-07 04:03:00,
2013-03-06 23:08:00,34.5,31.9,30.12,NW,311,0.0,2.0,90,0.00,,---,0.44,0.00,VWS V14.00,2013-03-07 04:08:00,
2013-03-06 23:13:00,34.5,31.9,30.11,NW,311,0.0,2.0,90,0.00,,---,0.44,0.00,VWS V14.00,2013-03-07 04:13:00,
2013-03-06 23:18:00,34.5,32.2,30.11,NW,311,0.0,2.0,91,0.00,,---,0.44,0.00,VWS V14.00,2013-03-07 04:18:00,
2013-03-06 23:23:00,34.5,32.2,30.11,NW,311,0.0,2.0,91,0.00,,---,0.44,0.00,VWS V14.00,2013-03-07 04:23:00,
2013-03-06 23:28:00,34.6,32.2,30.11,NW,311,0.0,2.0,91,0.00,,---,0.44,0.00,VWS V14.00,2013-03-07 04:28:00,
2013-03-06 23:30:00,34.8,32.2,30.11,NW,311,0.0,1.0,90,0.00,,---,0.00,0.00,VWS V14.00,2013-03-07 04:30:00,
2013-03-06 23:33:00,34.6,32.0,30.11,NW,311,0.0,0.0,90,0.00,,---,0.44,0.00,VWS V14.00,2013-03-07 04:33:00,
2013-03-06 23:38:00,34.6,32.0,30.12,NW,311,0.0,0.0,90,0.00,,---,0.44,0.00,VWS V14.00,2013-03-07 04:38:00,
2013-03-06 23:43:00,34.7,32.1,30.11,NW,311,0.0,0.0,90,0.00,,---,0.44,0.00,VWS V14.00,2013-03-07 04:43:00,
2013-03-06 23:48:00,34.7,32.1,30.11,NW,311,0.0,0.0,90,0.00,,---,0.44,0.00,VWS V14.00,2013-03-07 04:48:00,
2013-03-06 23:53:00,34.8,32.2,30.11,NW,311,0.0,0.0,90,0.00,,---,0.44,0.00,VWS V14.00,2013-03-07 04:53:00,
2013-03-06 23:58:00,34.8,32.2,30.11,NW,311,0.0,1.0,90,0.00,,---,0.44,0.00,VWS V14.00,2013-03-07 04:58:00,